sensor_id;sensor_type;location;lat;lon;timestamp;pressure;altitude;pressure_sealevel;temperature;humidity
41044;BME280;51680;49.806;18.774;2022-07-30T00:00:22;97334.81;;;22.80;76.09
41044;BME280;51680;49.806;18.774;2022-07-30T00:03:24;97323.31;;;22.79;76.11
41044;BME280;51680;49.806;18.774;2022-07-30T00:06:26;97322.28;;;22.80;75.98
41044;BME280;51680;49.806;18.774;2022-07-30T00:09:43;97312.31;;;22.82;76.10
41044;BME280;51680;49.806;18.774;2022-07-30T00:12:47;97305.97;;;22.83;75.90
41044;BME280;51680;49.806;18.774;2022-07-30T00:15:48;97312.16;;;22.84;76.04
41044;BME280;51680;49.806;18.774;2022-07-30T00:19:09;97312.78;;;22.86;76.04
41044;BME280;51680;49.806;18.774;2022-07-30T00:22:10;97298.47;;;22.87;76.03
41044;BME280;51680;49.806;18.774;2022-07-30T00:25:12;97271.03;;;22.86;75.60
41044;BME280;51680;49.806;18.774;2022-07-30T00:28:15;97275.50;;;22.86;75.76
41044;BME280;51680;49.806;18.774;2022-07-30T00:31:17;97252.59;;;22.77;76.20
41044;BME280;51680;49.806;18.774;2022-07-30T00:34:19;97252.31;;;22.72;76.02
41044;BME280;51680;49.806;18.774;2022-07-30T00:37:21;97265.09;;;22.76;76.08
41044;BME280;51680;49.806;18.774;2022-07-30T00:40:22;97252.97;;;22.74;75.79
41044;BME280;51680;49.806;18.774;2022-07-30T00:43:26;97245.69;;;22.68;76.26
41044;BME280;51680;49.806;18.774;2022-07-30T00:46:27;97245.91;;;22.58;76.84
41044;BME280;51680;49.806;18.774;2022-07-30T00:49:29;97262.16;;;22.33;78.38
41044;BME280;51680;49.806;18.774;2022-07-30T00:52:31;97253.66;;;21.99;80.22
41044;BME280;51680;49.806;18.774;2022-07-30T00:55:34;97255.69;;;21.81;80.93
41044;BME280;51680;49.806;18.774;2022-07-30T00:58:37;97247.75;;;21.73;81.41
41044;BME280;51680;49.806;18.774;2022-07-30T01:01:39;97260.19;;;21.64;82.19
41044;BME280;51680;49.806;18.774;2022-07-30T01:04:41;97252.75;;;21.60;82.50
41044;BME280;51680;49.806;18.774;2022-07-30T01:07:44;97235.84;;;21.37;84.03
41044;BME280;51680;49.806;18.774;2022-07-30T01:10:46;97239.50;;;21.20;84.99
41044;BME280;51680;49.806;18.774;2022-07-30T01:13:49;97245.47;;;21.14;85.15
41044;BME280;51680;49.806;18.774;2022-07-30T01:16:51;97244.66;;;21.13;85.30
41044;BME280;51680;49.806;18.774;2022-07-30T01:19:57;97242.34;;;21.10;86.02
41044;BME280;51680;49.806;18.774;2022-07-30T01:23:19;97246.31;;;21.14;87.08
41044;BME280;51680;49.806;18.774;2022-07-30T01:26:23;97248.63;;;21.17;85.30
41044;BME280;51680;49.806;18.774;2022-07-30T01:29:26;97243.16;;;21.11;85.92
41044;BME280;51680;49.806;18.774;2022-07-30T01:32:30;97249.13;;;21.05;86.43
41044;BME280;51680;49.806;18.774;2022-07-30T01:35:35;97246.81;;;21.10;85.77
41044;BME280;51680;49.806;18.774;2022-07-30T01:38:39;97240.66;;;21.25;84.81
41044;BME280;51680;49.806;18.774;2022-07-30T01:41:43;97234.50;;;21.41;84.09
41044;BME280;51680;49.806;18.774;2022-07-30T01:44:47;97237.13;;;21.57;83.19
41044;BME280;51680;49.806;18.774;2022-07-30T01:47:51;97227.84;;;21.69;82.64
41044;BME280;51680;49.806;18.774;2022-07-30T01:50:57;97227.63;;;21.78;82.19
41044;BME280;51680;49.806;18.774;2022-07-30T01:54:02;97223.94;;;21.87;81.71
41044;BME280;51680;49.806;18.774;2022-07-30T01:57:06;97226.59;;;21.95;81.26
41044;BME280;51680;49.806;18.774;2022-07-30T02:00:10;97230.38;;;22.01;80.99
41044;BME280;51680;49.806;18.774;2022-07-30T02:03:18;97224.78;;;21.88;82.04
41044;BME280;51680;49.806;18.774;2022-07-30T02:06:21;97227.47;;;21.72;81.11
41044;BME280;51680;49.806;18.774;2022-07-30T02:09:25;97234.31;;;21.58;79.95
41044;BME280;51680;49.806;18.774;2022-07-30T02:12:31;97232.16;;;21.70;80.39
41044;BME280;51680;49.806;18.774;2022-07-30T02:15:42;97233.97;;;21.77;79.85
41044;BME280;51680;49.806;18.774;2022-07-30T02:18:50;97229.97;;;21.81;79.40
41044;BME280;51680;49.806;18.774;2022-07-30T02:22:03;97238.72;;;21.90;79.05
41044;BME280;51680;49.806;18.774;2022-07-30T02:25:07;97239.69;;;21.97;78.29
41044;BME280;51680;49.806;18.774;2022-07-30T02:28:13;97228.88;;;22.06;77.86
41044;BME280;51680;49.806;18.774;2022-07-30T02:31:19;97231.00;;;22.11;77.22
41044;BME280;51680;49.806;18.774;2022-07-30T02:34:27;97223.16;;;22.17;76.92
41044;BME280;51680;49.806;18.774;2022-07-30T02:37:32;97215.31;;;22.24;76.67
41044;BME280;51680;49.806;18.774;2022-07-30T02:40:39;97221.78;;;22.29;76.64
41044;BME280;51680;49.806;18.774;2022-07-30T02:43:42;97223.25;;;22.32;76.61
41044;BME280;51680;49.806;18.774;2022-07-30T02:46:46;97224.91;;;22.33;76.74
41044;BME280;51680;49.806;18.774;2022-07-30T02:50:01;97216.94;;;22.33;76.70
41044;BME280;51680;49.806;18.774;2022-07-30T02:53:06;97221.59;;;22.31;76.57
41044;BME280;51680;49.806;18.774;2022-07-30T02:56:09;97214.09;;;22.34;76.88
41044;BME280;51680;49.806;18.774;2022-07-30T02:59:15;97207.28;;;22.32;77.30
41044;BME280;51680;49.806;18.774;2022-07-30T03:02:19;97209.06;;;22.09;77.88
41044;BME280;51680;49.806;18.774;2022-07-30T03:05:22;97199.44;;;22.08;77.65
41044;BME280;51680;49.806;18.774;2022-07-30T03:08:28;97193.97;;;22.09;77.25
41044;BME280;51680;49.806;18.774;2022-07-30T03:11:33;97207.38;;;22.16;77.18
41044;BME280;51680;49.806;18.774;2022-07-30T03:14:37;97211.34;;;22.20;77.02
41044;BME280;51680;49.806;18.774;2022-07-30T03:17:58;97204.66;;;22.24;76.95
41044;BME280;51680;49.806;18.774;2022-07-30T03:21:01;97210.28;;;22.29;76.88
41044;BME280;51680;49.806;18.774;2022-07-30T03:24:05;97206.47;;;22.31;76.76
41044;BME280;51680;49.806;18.774;2022-07-30T03:27:08;97204.47;;;22.33;76.83
41044;BME280;51680;49.806;18.774;2022-07-30T03:30:13;97194.63;;;22.34;76.89
41044;BME280;51680;49.806;18.774;2022-07-30T03:33:15;97205.09;;;22.35;76.72
41044;BME280;51680;49.806;18.774;2022-07-30T03:36:19;97203.63;;;22.33;76.76
41044;BME280;51680;49.806;18.774;2022-07-30T03:39:22;97207.63;;;22.29;76.72
41044;BME280;51680;49.806;18.774;2022-07-30T03:42:26;97194.88;;;22.24;76.73
41044;BME280;51680;49.806;18.774;2022-07-30T03:45:30;97205.00;;;22.21;76.79
41044;BME280;51680;49.806;18.774;2022-07-30T03:48:39;97207.38;;;22.16;76.89
41044;BME280;51680;49.806;18.774;2022-07-30T03:51:41;97208.91;;;22.10;77.00
41044;BME280;51680;49.806;18.774;2022-07-30T03:54:44;97207.41;;;22.08;77.12
41044;BME280;51680;49.806;18.774;2022-07-30T03:58:15;97211.72;;;22.09;77.02
41044;BME280;51680;49.806;18.774;2022-07-30T04:01:23;97209.72;;;22.11;76.95
41044;BME280;51680;49.806;18.774;2022-07-30T04:04:25;97217.19;;;22.15;76.99
41044;BME280;51680;49.806;18.774;2022-07-30T04:07:28;97210.03;;;22.16;77.02
41044;BME280;51680;49.806;18.774;2022-07-30T04:10:30;97215.00;;;22.19;77.01
41044;BME280;51680;49.806;18.774;2022-07-30T04:13:31;97212.66;;;22.24;76.91
41044;BME280;51680;49.806;18.774;2022-07-30T04:16:38;97218.09;;;22.30;76.69
41044;BME280;51680;49.806;18.774;2022-07-30T04:19:50;97221.59;;;22.31;76.99
41044;BME280;51680;49.806;18.774;2022-07-30T04:22:54;97240.88;;;22.33;76.95
41044;BME280;51680;49.806;18.774;2022-07-30T04:25:58;97236.88;;;22.37;76.98
41044;BME280;51680;49.806;18.774;2022-07-30T04:29:01;97233.66;;;22.41;76.91
41044;BME280;51680;49.806;18.774;2022-07-30T04:32:05;97238.38;;;22.31;76.72
41044;BME280;51680;49.806;18.774;2022-07-30T04:35:08;97227.88;;;22.38;76.85
41044;BME280;51680;49.806;18.774;2022-07-30T04:38:30;97230.00;;;22.42;76.99
41044;BME280;51680;49.806;18.774;2022-07-30T04:41:31;97232.19;;;22.47;76.92
41044;BME280;51680;49.806;18.774;2022-07-30T04:44:57;97232.00;;;22.48;76.95
41044;BME280;51680;49.806;18.774;2022-07-30T04:48:03;97232.47;;;22.52;77.14
41044;BME280;51680;49.806;18.774;2022-07-30T04:51:10;97226.81;;;22.55;76.92
41044;BME280;51680;49.806;18.774;2022-07-30T04:54:13;97229.09;;;22.58;77.27
41044;BME280;51680;49.806;18.774;2022-07-30T04:57:17;97221.97;;;22.58;77.20
41044;BME280;51680;49.806;18.774;2022-07-30T05:00:19;97228.75;;;22.61;77.34
41044;BME280;51680;49.806;18.774;2022-07-30T05:03:23;97225.44;;;22.59;77.38
41044;BME280;51680;49.806;18.774;2022-07-30T05:06:27;97226.28;;;22.59;77.61
41044;BME280;51680;49.806;18.774;2022-07-30T05:09:31;97229.69;;;22.45;78.21
41044;BME280;51680;49.806;18.774;2022-07-30T05:12:33;97224.31;;;22.53;77.77
41044;BME280;51680;49.806;18.774;2022-07-30T05:15:37;97218.13;;;22.61;78.04
41044;BME280;51680;49.806;18.774;2022-07-30T05:18:42;97211.03;;;22.53;77.42
41044;BME280;51680;49.806;18.774;2022-07-30T05:21:45;97214.44;;;22.62;77.96
41044;BME280;51680;49.806;18.774;2022-07-30T05:24:47;97223.38;;;22.69;77.90
41044;BME280;51680;49.806;18.774;2022-07-30T05:27:48;97224.97;;;22.78;77.77
41044;BME280;51680;49.806;18.774;2022-07-30T05:30:50;97227.94;;;22.83;77.67
41044;BME280;51680;49.806;18.774;2022-07-30T05:34:12;97233.38;;;22.89;77.63
41044;BME280;51680;49.806;18.774;2022-07-30T05:37:17;97242.31;;;22.96;77.89
41044;BME280;51680;49.806;18.774;2022-07-30T05:40:19;97240.00;;;22.93;78.28
41044;BME280;51680;49.806;18.774;2022-07-30T05:43:42;97230.88;;;22.88;78.65
41044;BME280;51680;49.806;18.774;2022-07-30T05:46:43;97225.84;;;22.93;78.24
41044;BME280;51680;49.806;18.774;2022-07-30T05:49:47;97236.09;;;23.04;78.50
41044;BME280;51680;49.806;18.774;2022-07-30T05:52:49;97229.28;;;23.24;78.19
41044;BME280;51680;49.806;18.774;2022-07-30T05:56:10;97233.28;;;23.42;77.54
41044;BME280;51680;49.806;18.774;2022-07-30T05:59:32;97238.25;;;23.60;77.33
41044;BME280;51680;49.806;18.774;2022-07-30T06:02:46;97234.44;;;23.77;76.99
41044;BME280;51680;49.806;18.774;2022-07-30T06:06:02;97231.75;;;23.77;76.92
41044;BME280;51680;49.806;18.774;2022-07-30T06:09:05;97236.63;;;23.59;77.60
41044;BME280;51680;49.806;18.774;2022-07-30T06:12:07;97237.91;;;23.63;77.94
41044;BME280;51680;49.806;18.774;2022-07-30T06:15:09;97230.84;;;23.70;77.60
41044;BME280;51680;49.806;18.774;2022-07-30T06:18:13;97227.78;;;23.73;77.72
41044;BME280;51680;49.806;18.774;2022-07-30T06:21:24;97213.81;;;23.85;77.09
41044;BME280;51680;49.806;18.774;2022-07-30T06:24:40;97210.34;;;23.99;77.35
41044;BME280;51680;49.806;18.774;2022-07-30T06:27:51;97210.03;;;24.23;76.65
41044;BME280;51680;49.806;18.774;2022-07-30T06:30:53;97202.44;;;24.56;75.94
41044;BME280;51680;49.806;18.774;2022-07-30T06:33:57;97204.25;;;24.91;74.99
41044;BME280;51680;49.806;18.774;2022-07-30T06:37:05;97202.25;;;24.99;74.43
41044;BME280;51680;49.806;18.774;2022-07-30T06:40:08;97194.69;;;24.82;74.32
41044;BME280;51680;49.806;18.774;2022-07-30T06:43:39;97189.81;;;25.13;73.89
41044;BME280;51680;49.806;18.774;2022-07-30T06:47:01;97189.63;;;25.63;73.07
41044;BME280;51680;49.806;18.774;2022-07-30T06:50:03;97183.94;;;26.13;72.25
41044;BME280;51680;49.806;18.774;2022-07-30T06:53:10;97187.09;;;26.29;70.67
41044;BME280;51680;49.806;18.774;2022-07-30T06:56:30;97180.00;;;26.56;68.45
41044;BME280;51680;49.806;18.774;2022-07-30T06:59:37;97180.09;;;27.14;67.91
41044;BME280;51680;49.806;18.774;2022-07-30T07:02:59;97182.72;;;27.92;67.02
41044;BME280;51680;49.806;18.774;2022-07-30T07:06:09;97187.50;;;28.41;66.13
41044;BME280;51680;49.806;18.774;2022-07-30T07:09:12;97192.22;;;28.45;65.10
41044;BME280;51680;49.806;18.774;2022-07-30T07:12:21;97193.66;;;28.48;64.77
41044;BME280;51680;49.806;18.774;2022-07-30T07:15:24;97188.53;;;28.46;64.16
41044;BME280;51680;49.806;18.774;2022-07-30T07:18:26;97185.28;;;28.69;63.42
41044;BME280;51680;49.806;18.774;2022-07-30T07:21:39;97183.47;;;29.00;63.07
41044;BME280;51680;49.806;18.774;2022-07-30T07:24:42;97167.72;;;29.28;61.18
41044;BME280;51680;49.806;18.774;2022-07-30T07:27:47;97170.81;;;29.75;60.14
41044;BME280;51680;49.806;18.774;2022-07-30T07:30:49;97162.38;;;30.07;59.21
41044;BME280;51680;49.806;18.774;2022-07-30T07:33:51;97172.09;;;30.08;59.17
41044;BME280;51680;49.806;18.774;2022-07-30T07:36:53;97163.50;;;30.18;58.57
41044;BME280;51680;49.806;18.774;2022-07-30T07:39:57;97168.66;;;30.37;57.79
41044;BME280;51680;49.806;18.774;2022-07-30T07:43:00;97162.75;;;30.58;56.92
41044;BME280;51680;49.806;18.774;2022-07-30T07:46:02;97162.44;;;30.84;56.37
41044;BME280;51680;49.806;18.774;2022-07-30T07:49:07;97154.53;;;31.12;56.26
41044;BME280;51680;49.806;18.774;2022-07-30T07:52:14;97155.56;;;31.00;55.22
41044;BME280;51680;49.806;18.774;2022-07-30T07:55:20;97151.34;;;30.45;55.47
41044;BME280;51680;49.806;18.774;2022-07-30T07:58:22;97155.97;;;30.26;56.07
41044;BME280;51680;49.806;18.774;2022-07-30T08:01:24;97154.91;;;30.27;56.52
41044;BME280;51680;49.806;18.774;2022-07-30T08:04:46;97156.09;;;29.59;56.44
41044;BME280;51680;49.806;18.774;2022-07-30T08:08:12;97156.53;;;29.07;58.41
41044;BME280;51680;49.806;18.774;2022-07-30T08:11:34;97150.16;;;28.95;58.20
41044;BME280;51680;49.806;18.774;2022-07-30T08:14:55;97150.09;;;28.77;58.62
41044;BME280;51680;49.806;18.774;2022-07-30T08:18:20;97145.06;;;28.87;60.15
41044;BME280;51680;49.806;18.774;2022-07-30T08:21:32;97143.66;;;29.09;59.23
41044;BME280;51680;49.806;18.774;2022-07-30T08:24:34;97140.97;;;29.09;59.39
41044;BME280;51680;49.806;18.774;2022-07-30T08:27:37;97143.56;;;29.22;59.44
41044;BME280;51680;49.806;18.774;2022-07-30T08:30:40;97142.97;;;28.89;59.28
41044;BME280;51680;49.806;18.774;2022-07-30T08:33:42;97144.06;;;28.81;58.70
41044;BME280;51680;49.806;18.774;2022-07-30T08:36:44;97136.88;;;29.06;59.04
41044;BME280;51680;49.806;18.774;2022-07-30T08:39:46;97143.88;;;29.07;58.61
41044;BME280;51680;49.806;18.774;2022-07-30T08:42:49;97136.50;;;29.03;58.75
41044;BME280;51680;49.806;18.774;2022-07-30T08:45:52;97140.28;;;28.89;59.02
41044;BME280;51680;49.806;18.774;2022-07-30T08:49:08;97145.56;;;28.71;59.70
41044;BME280;51680;49.806;18.774;2022-07-30T08:52:13;97133.41;;;28.68;59.93
41044;BME280;51680;49.806;18.774;2022-07-30T08:55:20;97134.94;;;28.58;60.11
41044;BME280;51680;49.806;18.774;2022-07-30T08:58:27;97135.34;;;28.55;60.41
41044;BME280;51680;49.806;18.774;2022-07-30T09:01:30;97138.47;;;28.52;60.59
41044;BME280;51680;49.806;18.774;2022-07-30T09:04:32;97141.16;;;28.52;61.01
41044;BME280;51680;49.806;18.774;2022-07-30T09:07:35;97132.06;;;28.53;60.81
41044;BME280;51680;49.806;18.774;2022-07-30T09:10:37;97127.47;;;28.60;60.61
41044;BME280;51680;49.806;18.774;2022-07-30T09:13:41;97126.59;;;28.66;61.05
41044;BME280;51680;49.806;18.774;2022-07-30T09:16:46;97137.50;;;28.71;60.48
41044;BME280;51680;49.806;18.774;2022-07-30T09:20:04;97134.41;;;28.74;60.19
41044;BME280;51680;49.806;18.774;2022-07-30T09:23:09;97137.50;;;28.71;60.20
41044;BME280;51680;49.806;18.774;2022-07-30T09:26:24;97136.91;;;28.69;60.21
41044;BME280;51680;49.806;18.774;2022-07-30T09:29:55;97124.94;;;28.65;59.92
41044;BME280;51680;49.806;18.774;2022-07-30T09:33:30;97125.81;;;28.59;60.48
41044;BME280;51680;49.806;18.774;2022-07-30T09:36:54;97120.16;;;28.42;61.12
41044;BME280;51680;49.806;18.774;2022-07-30T09:39:56;97121.44;;;28.27;61.88
41044;BME280;51680;49.806;18.774;2022-07-30T09:43:05;97114.66;;;28.18;62.36
41044;BME280;51680;49.806;18.774;2022-07-30T09:46:09;97128.13;;;28.05;62.50
41044;BME280;51680;49.806;18.774;2022-07-30T09:49:16;97130.25;;;27.90;63.14
41044;BME280;51680;49.806;18.774;2022-07-30T09:52:26;97153.25;;;27.53;65.23
41044;BME280;51680;49.806;18.774;2022-07-30T09:55:30;97161.75;;;27.24;67.67
41044;BME280;51680;49.806;18.774;2022-07-30T09:58:39;97166.25;;;26.85;68.47
41044;BME280;51680;49.806;18.774;2022-07-30T10:01:51;97174.25;;;26.59;69.52
41044;BME280;51680;49.806;18.774;2022-07-30T10:05:15;97171.44;;;25.86;71.01
41044;BME280;51680;49.806;18.774;2022-07-30T10:08:19;97169.50;;;25.67;71.27
41044;BME280;51680;49.806;18.774;2022-07-30T10:11:22;97168.63;;;25.60;71.54
41044;BME280;51680;49.806;18.774;2022-07-30T10:14:32;97171.06;;;25.55;72.08
41044;BME280;51680;49.806;18.774;2022-07-30T10:17:36;97169.22;;;25.55;71.65
41044;BME280;51680;49.806;18.774;2022-07-30T10:21:09;97169.41;;;25.54;71.85
41044;BME280;51680;49.806;18.774;2022-07-30T10:24:31;97162.78;;;25.50;71.95
41044;BME280;51680;49.806;18.774;2022-07-30T10:27:53;97175.06;;;25.38;71.85
41044;BME280;51680;49.806;18.774;2022-07-30T10:31:01;97166.81;;;25.33;72.12
41044;BME280;51680;49.806;18.774;2022-07-30T10:34:05;97184.63;;;25.26;72.54
41044;BME280;51680;49.806;18.774;2022-07-30T10:37:08;97168.31;;;25.21;72.63
41044;BME280;51680;49.806;18.774;2022-07-30T10:40:16;97179.00;;;25.21;72.92
41044;BME280;51680;49.806;18.774;2022-07-30T10:43:39;97179.28;;;25.26;74.29
41044;BME280;51680;49.806;18.774;2022-07-30T10:46:47;97186.09;;;25.07;75.04
41044;BME280;51680;49.806;18.774;2022-07-30T10:50:07;97179.41;;;25.18;74.48
41044;BME280;51680;49.806;18.774;2022-07-30T10:53:09;97171.41;;;25.24;73.08
41044;BME280;51680;49.806;18.774;2022-07-30T10:56:14;97175.22;;;25.30;73.57
41044;BME280;51680;49.806;18.774;2022-07-30T10:59:18;97175.41;;;25.28;73.42
41044;BME280;51680;49.806;18.774;2022-07-30T11:02:21;97177.97;;;25.22;73.91
41044;BME280;51680;49.806;18.774;2022-07-30T11:05:25;97186.78;;;25.16;74.05
41044;BME280;51680;49.806;18.774;2022-07-30T11:08:36;97175.66;;;25.12;74.50
41044;BME280;51680;49.806;18.774;2022-07-30T11:11:42;97180.16;;;25.12;74.55
41044;BME280;51680;49.806;18.774;2022-07-30T11:14:55;97174.16;;;25.03;75.04
41044;BME280;51680;49.806;18.774;2022-07-30T11:18:04;97168.13;;;24.95;75.14
41044;BME280;51680;49.806;18.774;2022-07-30T11:21:16;97175.88;;;24.90;75.25
41044;BME280;51680;49.806;18.774;2022-07-30T11:24:43;97185.41;;;24.78;76.91
41044;BME280;51680;49.806;18.774;2022-07-30T11:27:47;97176.28;;;24.66;75.90
41044;BME280;51680;49.806;18.774;2022-07-30T11:30:49;97181.41;;;24.67;76.02
41044;BME280;51680;49.806;18.774;2022-07-30T11:34:25;97177.16;;;24.73;76.20
41044;BME280;51680;49.806;18.774;2022-07-30T11:37:28;97175.31;;;24.73;75.92
41044;BME280;51680;49.806;18.774;2022-07-30T11:40:32;97173.28;;;24.75;75.94
41044;BME280;51680;49.806;18.774;2022-07-30T11:43:34;97174.28;;;24.74;76.10
41044;BME280;51680;49.806;18.774;2022-07-30T11:46:46;97181.09;;;24.77;76.15
41044;BME280;51680;49.806;18.774;2022-07-30T11:49:48;97176.53;;;24.71;76.12
41044;BME280;51680;49.806;18.774;2022-07-30T11:52:53;97173.19;;;24.69;75.73
41044;BME280;51680;49.806;18.774;2022-07-30T11:55:57;97174.22;;;24.68;75.82
41044;BME280;51680;49.806;18.774;2022-07-30T11:59:00;97174.59;;;24.65;75.94
41044;BME280;51680;49.806;18.774;2022-07-30T12:02:02;97169.84;;;24.60;75.70
41044;BME280;51680;49.806;18.774;2022-07-30T12:05:05;97176.00;;;24.61;75.76
41044;BME280;51680;49.806;18.774;2022-07-30T12:08:09;97176.63;;;24.63;75.77
41044;BME280;51680;49.806;18.774;2022-07-30T12:11:11;97175.63;;;24.64;75.97
41044;BME280;51680;49.806;18.774;2022-07-30T12:14:13;97176.06;;;24.67;75.85
41044;BME280;51680;49.806;18.774;2022-07-30T12:17:15;97174.47;;;24.73;76.24
41044;BME280;51680;49.806;18.774;2022-07-30T12:20:18;97170.41;;;24.77;75.76
41044;BME280;51680;49.806;18.774;2022-07-30T12:23:21;97170.66;;;24.82;75.62
41044;BME280;51680;49.806;18.774;2022-07-30T12:26:24;97158.97;;;24.83;75.75
41044;BME280;51680;49.806;18.774;2022-07-30T12:29:26;97164.88;;;24.78;75.78
41044;BME280;51680;49.806;18.774;2022-07-30T12:32:28;97164.44;;;24.75;76.08
41044;BME280;51680;49.806;18.774;2022-07-30T12:35:52;97171.38;;;24.69;76.86
41044;BME280;51680;49.806;18.774;2022-07-30T12:38:56;97164.03;;;24.57;76.32
41044;BME280;51680;49.806;18.774;2022-07-30T12:41:58;97164.19;;;24.34;78.24
41044;BME280;51680;49.806;18.774;2022-07-30T12:44:59;97167.75;;;24.20;77.09
41044;BME280;51680;49.806;18.774;2022-07-30T12:48:01;97164.34;;;24.12;77.41
41044;BME280;51680;49.806;18.774;2022-07-30T12:51:10;97159.38;;;24.09;77.14
41044;BME280;51680;49.806;18.774;2022-07-30T12:54:17;97173.09;;;24.06;77.22
41044;BME280;51680;49.806;18.774;2022-07-30T12:57:19;97163.34;;;23.98;77.64
41044;BME280;51680;49.806;18.774;2022-07-30T13:00:23;97161.72;;;23.97;77.21
41044;BME280;51680;49.806;18.774;2022-07-30T13:03:26;97159.78;;;23.91;77.54
41044;BME280;51680;49.806;18.774;2022-07-30T13:06:28;97157.13;;;23.91;77.23
41044;BME280;51680;49.806;18.774;2022-07-30T13:09:32;97152.25;;;23.95;77.34
41044;BME280;51680;49.806;18.774;2022-07-30T13:12:34;97146.63;;;23.90;77.33
41044;BME280;51680;49.806;18.774;2022-07-30T13:15:36;97151.00;;;23.83;77.83
41044;BME280;51680;49.806;18.774;2022-07-30T13:18:38;97147.34;;;23.84;77.85
41044;BME280;51680;49.806;18.774;2022-07-30T13:21:40;97141.00;;;23.85;78.01
41044;BME280;51680;49.806;18.774;2022-07-30T13:24:44;97136.31;;;23.87;78.01
41044;BME280;51680;49.806;18.774;2022-07-30T13:27:46;97133.13;;;23.91;77.80
41044;BME280;51680;49.806;18.774;2022-07-30T13:30:48;97115.34;;;23.98;77.43
41044;BME280;51680;49.806;18.774;2022-07-30T13:33:49;97115.41;;;24.05;77.58
41044;BME280;51680;49.806;18.774;2022-07-30T13:36:51;97105.91;;;24.17;77.84
41044;BME280;51680;49.806;18.774;2022-07-30T13:39:54;97112.91;;;24.18;77.35
41044;BME280;51680;49.806;18.774;2022-07-30T13:42:56;97112.06;;;24.17;76.83
41044;BME280;51680;49.806;18.774;2022-07-30T13:45:58;97110.59;;;24.15;76.84
41044;BME280;51680;49.806;18.774;2022-07-30T13:49:00;97111.91;;;24.04;77.31
41044;BME280;51680;49.806;18.774;2022-07-30T13:52:02;97109.56;;;23.95;77.57
41044;BME280;51680;49.806;18.774;2022-07-30T13:55:06;97110.59;;;23.94;77.99
41044;BME280;51680;49.806;18.774;2022-07-30T13:58:08;97106.25;;;23.93;77.89
41044;BME280;51680;49.806;18.774;2022-07-30T14:01:10;97106.25;;;23.93;77.97
41044;BME280;51680;49.806;18.774;2022-07-30T14:04:11;97103.56;;;23.93;77.97
41044;BME280;51680;49.806;18.774;2022-07-30T14:07:13;97098.06;;;23.94;78.22
41044;BME280;51680;49.806;18.774;2022-07-30T14:10:16;97101.38;;;23.96;78.59
41044;BME280;51680;49.806;18.774;2022-07-30T14:13:21;97098.25;;;23.93;78.78
41044;BME280;51680;49.806;18.774;2022-07-30T14:16:23;97088.31;;;24.01;78.29
41044;BME280;51680;49.806;18.774;2022-07-30T14:19:25;97090.03;;;24.09;78.26
41044;BME280;51680;49.806;18.774;2022-07-30T14:22:26;97091.31;;;24.13;77.38
41044;BME280;51680;49.806;18.774;2022-07-30T14:25:30;97091.31;;;24.13;77.70
41044;BME280;51680;49.806;18.774;2022-07-30T14:28:32;97076.63;;;24.02;77.63
41044;BME280;51680;49.806;18.774;2022-07-30T14:31:34;97088.66;;;23.98;77.63
41044;BME280;51680;49.806;18.774;2022-07-30T14:34:36;97081.84;;;23.81;78.11
41044;BME280;51680;49.806;18.774;2022-07-30T14:37:38;97087.88;;;23.69;78.60
41044;BME280;51680;49.806;18.774;2022-07-30T14:40:42;97082.25;;;23.64;78.52
41044;BME280;51680;49.806;18.774;2022-07-30T14:43:43;97084.50;;;23.60;79.04
41044;BME280;51680;49.806;18.774;2022-07-30T14:46:45;97094.03;;;23.55;79.09
41044;BME280;51680;49.806;18.774;2022-07-30T14:49:47;97093.59;;;23.51;79.32
41044;BME280;51680;49.806;18.774;2022-07-30T14:52:49;97087.09;;;23.39;79.70
41044;BME280;51680;49.806;18.774;2022-07-30T14:55:52;97089.59;;;23.41;79.68
41044;BME280;51680;49.806;18.774;2022-07-30T14:58:54;97084.25;;;23.41;79.59
41044;BME280;51680;49.806;18.774;2022-07-30T15:01:56;97088.84;;;23.47;79.24
41044;BME280;51680;49.806;18.774;2022-07-30T15:04:57;97085.16;;;23.48;79.24
41044;BME280;51680;49.806;18.774;2022-07-30T15:07:59;97077.34;;;23.46;79.26
41044;BME280;51680;49.806;18.774;2022-07-30T15:11:03;97092.13;;;23.49;79.43
41044;BME280;51680;49.806;18.774;2022-07-30T15:14:05;97082.31;;;23.49;79.31
41044;BME280;51680;49.806;18.774;2022-07-30T15:17:06;97091.75;;;23.52;79.36
41044;BME280;51680;49.806;18.774;2022-07-30T15:20:09;97092.22;;;23.55;79.23
41044;BME280;51680;49.806;18.774;2022-07-30T15:23:11;97083.84;;;23.58;79.13
41044;BME280;51680;49.806;18.774;2022-07-30T15:26:15;97086.97;;;23.62;79.18
41044;BME280;51680;49.806;18.774;2022-07-30T15:29:16;97091.94;;;23.65;78.97
41044;BME280;51680;49.806;18.774;2022-07-30T15:32:18;97102.88;;;23.70;78.86
41044;BME280;51680;49.806;18.774;2022-07-30T15:35:20;97097.16;;;23.73;78.84
41044;BME280;51680;49.806;18.774;2022-07-30T15:38:22;97089.59;;;23.76;78.71
41044;BME280;51680;49.806;18.774;2022-07-30T15:41:25;97094.13;;;23.76;78.59
41044;BME280;51680;49.806;18.774;2022-07-30T15:44:27;97081.41;;;23.78;78.60
41044;BME280;51680;49.806;18.774;2022-07-30T15:47:29;97081.81;;;23.75;78.58
41044;BME280;51680;49.806;18.774;2022-07-30T15:50:30;97086.47;;;23.73;78.30
41044;BME280;51680;49.806;18.774;2022-07-30T15:53:32;97082.19;;;23.72;78.46
41044;BME280;51680;49.806;18.774;2022-07-30T15:56:35;97066.94;;;23.66;78.49
41044;BME280;51680;49.806;18.774;2022-07-30T15:59:37;97074.66;;;23.61;78.14
41044;BME280;51680;49.806;18.774;2022-07-30T16:02:39;97076.22;;;23.55;78.47
41044;BME280;51680;49.806;18.774;2022-07-30T16:05:41;97069.59;;;23.51;78.20
41044;BME280;51680;49.806;18.774;2022-07-30T16:08:43;97075.78;;;23.52;78.36
41044;BME280;51680;49.806;18.774;2022-07-30T16:11:46;97073.91;;;23.52;78.29